HST,Max TemperatureF,Mean TemperatureF,Min TemperatureF,Max Dew PointF,MeanDew PointF,Min DewpointF,Max Humidity, Mean Humidity, Min Humidity, Max Sea Level PressureIn, Mean Sea Level PressureIn, Min Sea Level PressureIn, Max VisibilityMiles, Mean VisibilityMiles, Min VisibilityMiles, Max Wind SpeedMPH, Mean Wind SpeedMPH, Max Gust SpeedMPH,PrecipitationIn, CloudCover, Events, WindDirDegrees
2013-4-1,62,55,48,43,4,-15,52,15,5,30.25,30.20,30.13,7,7,7,15,10,25,0.00,1,,272
2013-4-2,60,55,50,45,35,25,62,44,27,30.51,30.30,30.22,7,7,7,12,7,20,0.00,1,,264
2013-4-3,62,50,39,46,39,21,62,52,36,30.36,30.29,30.25,7,7,7,14,6,22,0.00,2,,238
2013-4-4,64,54,44,48,43,39,81,58,48,30.59,30.36,30.27,7,7,7,14,6,23,0.00,1,,262
2013-4-5,69,62,55,54,45,36,68,51,30,30.36,30.31,30.27,7,7,7,24,11,29,0.00,8,,218
2013-4-6,,,,,,,,,,,,,,,,,,,,,,
2013-4-7,,,,,,,,,,,,,,,,,,,,,,
2013-4-8,69,58,46,52,44,32,72,56,25,30.36,30.29,30.25,12,8,7,13,9,23,0.00,2,,198
2013-4-9,69,58,46,54,39,25,68,47,20,30.34,30.27,30.22,12,8,7,113,23,23,0.00,3,,233
2013-4-10,71,58,44,54,36,18,56,36,15,30.37,30.27,30.25,7,7,7,13,8,20,0.00,1,,235
2013-4-11,75,65,55,50,29,18,46,24,13,30.29,30.19,30.13,7,7,7,16,8,20,0.00,1,,207
2013-4-12,68,60,53,54,39,12,68,44,15,30.21,30.16,30.12,7,7,7,14,7,24,0.00,2,,225
2013-4-13,,,,,,,,,,,,,,,,,,,,,,
2013-4-14,,,,,,,,,,,,,,,,,,,,,,
2013-4-15,71,61,51,48,33,23,49,30,17,30.26,30.21,30.19,7,7,7,18,6,22,0.00,3,,261
2013-4-16,69,60,51,54,40,23,60,40,21,30.37,30.28,30.22,12,8,7,18,9,24,0.00,2,,249
2013-4-17,66,58,51,57,53,43,100,77,56,30.39,30.35,30.30,7,7,7,13,10,23,0.00,4,Rain,239
2013-4-18,68,59,50,48,39,30,59,43,24,30.66,30.39,30.27,7,7,7,23,11,32,0.00,1,,151
2013-4-19,69,60,51,55,45,34,88,55,39,30.35,30.31,30.29,7,7,7,21,13,30,0.00,2,,174
2013-4-20,,,,,,,,,,,,,,,,,,,,,,
2013-4-21,,,,,,,,,,,,,,,,,,,,,,
2013-4-22,69,63,57,46,34,25,46,31,20,30.37,30.27,30.18,7,7,7,13,5,22,0.00,1,,249
2013-4-23,71,66,60,45,31,25,40,25,17,30.27,30.23,30.17,7,7,7,13,7,21,0.00,1,,271
2013-4-24,71,62,53,37,32,27,41,28,21,30.35,30.29,30.25,7,7,7,15,7,28,0.00,5,,262
2013-4-25,69,64,59,57,53,46,94,73,43,30.35,30.29,30.24,7,7,6,14,8,18,0.32,5,Rain,259
2013-4-26,68,58,48,52,44,23,77,56,18,30.33,30.26,30.23,12,8,7,15,11,24,0.00,2,,189
2013-4-27,,,,,,,,,,,,,,,,,,,,,,
2013-4-28,,,,,,,,,,,,,,,,,,,,,,
2013-4-29,66,58,51,52,48,39,68,60,51,30.28,30.20,30.14,7,6,5,15,6,23,0.00,3,,262
2013-4-30,68,60,51,55,47,34,68,56,42,30.29,30.24,30.18,7,7,5,16,7,30,0.00,3,,262